PST,Max TemperatureF,Mean TemperatureF,Min TemperatureF,Max Dew PointF,MeanDew PointF,Min DewpointF,Max Humidity, Mean Humidity, Min Humidity, Max Sea Level PressureIn, Mean Sea Level PressureIn, Min Sea Level PressureIn, Max VisibilityMiles, Mean VisibilityMiles, Min VisibilityMiles, Max Wind SpeedMPH, Mean Wind SpeedMPH, Max Gust SpeedMPH,PrecipitationIn, CloudCover, Events, WindDirDegrees
2012-11-1,62,55,48,54,49,45,94,85,68,30.08,30.06,30.03,10,9,3,13,6,18,0.36,6,,114
2012-11-2,60,54,48,48,43,36,87,66,48,30.10,30.08,30.06,10,10,10,13,5,,0.00,1,,73
2012-11-3,64,57,50,50,41,32,77,55,37,30.20,30.16,30.10,10,10,10,14,3,,0.00,0,,64
2012-11-4,69,61,53,50,43,32,72,50,36,30.27,30.23,30.20,10,10,10,9,1,,0.00,0,,99
2012-11-5,73,66,59,50,46,37,63,47,33,30.26,30.21,30.17,10,10,10,7,1,,0.00,0,,105
2012-11-6,78,68,59,48,36,28,45,31,22,30.20,30.15,30.11,10,10,9,13,3,,0.00,0,,86
2012-11-7,71,63,55,45,37,25,67,39,24,30.11,30.04,29.91,10,10,10,12,3,,0.00,2,,145
2012-11-8,57,46,35,45,38,32,100,83,48,29.94,29.88,29.84,10,6,0,20,9,26,0.31,8,,198
2012-11-9,41,37,32,39,34,32,100,93,81,29.94,29.89,29.86,10,8,0,12,7,,0.01,7,,153
2012-11-10,44,38,32,36,33,25,100,88,61,30.22,30.07,29.93,10,9,1,12,7,18,0.00,6,,141
2012-11-11,48,40,32,32,25,18,81,59,32,30.37,30.31,30.23,10,10,10,13,7,,0.00,1,,75
2012-11-12,55,47,39,37,30,25,75,53,33,30.37,30.32,30.27,10,10,10,12,3,,0.00,2,,81
2012-11-13,62,53,44,41,35,23,71,50,35,30.29,30.20,30.13,10,10,8,14,4,,0.00,0,,84
2012-11-14,64,57,50,43,36,25,63,48,33,30.17,30.13,30.08,10,10,10,12,3,,0.00,0,,89
2012-11-15,68,59,50,37,26,18,50,31,21,30.09,30.05,30.01,10,10,10,13,3,23,0.00,1,,148
2012-11-16,55,52,48,48,40,25,94,66,33,30.05,30.01,29.95,10,9,3,16,6,23,0.16,7,,164
2012-11-17,51,48,46,50,48,45,100,96,82,30.01,29.94,29.89,10,5,0,24,16,37,0.98,7,,176
2012-11-18,46,44,41,46,44,37,100,96,71,30.21,30.11,30.00,10,5,0,18,9,29,0.49,8,,153
2012-11-19,57,52,46,48,44,39,94,80,67,30.27,30.22,30.18,10,10,10,12,6,,0.00,6,,158
2012-11-20,57,52,46,48,44,39,100,73,55,30.20,30.13,30.08,10,10,5,16,10,25,0.05,7,,167
2012-11-21,50,48,46,50,47,39,100,96,71,30.20,30.16,30.07,10,5,0,16,10,21,0.37,6,,165
2012-11-22,59,50,41,46,40,27,93,68,43,30.27,30.22,30.17,10,10,10,14,6,,0.00,0,,83
2012-11-23,66,57,48,48,41,32,77,55,38,30.31,30.26,30.22,10,10,8,8,2,,0.00,0,,101
2012-11-24,64,57,50,46,35,23,72,45,27,30.24,30.15,30.07,10,10,10,8,1,,0.00,0,,102
2012-11-25,62,55,48,43,34,25,71,48,31,30.06,30.01,29.97,10,10,10,10,2,,0.00,0,,99
2012-11-26,62,54,46,45,34,25,72,46,31,30.11,30.07,30.00,10,10,10,9,2,,0.00,0,,124
2012-11-27,59,54,48,43,31,19,82,41,23,30.14,30.09,30.04,10,9,2,15,5,20,0.00,0,,152
2012-11-28,55,50,46,50,42,28,100,80,36,30.09,30.00,29.90,10,6,0,26,12,41,0.81,7,,179
2012-11-29,55,52,48,52,49,46,100,94,72,30.10,30.03,29.89,10,6,0,26,15,39,0.20,7,,181
2012-11-30,51,50,48,50,50,48,100,100,94,30.04,29.92,29.81,10,2,0,32,22,48,2.59,8,,185